Terminal Aerodrome Forecast
Issued by NWS

Home | Current Version | Previous Version | Text Only | Print | Product List | Glossary On
Versions: 1 2 3 4 5 6 7 8 9 10 11 12
434
FTUS45 KTFX 231146
TAFBZN
TAF
KBZN 231146Z 2312/2412 14005KT P6SM SCT080 BKN120
     FM232100 29010KT P6SM VCSH SCT040 BKN060 PROB30 2322/2401
      VRB20G30KT 4SM -TSRA BKN025CB
     FM240100 23007KT P6SM -SHRA BKN030
     FM240600 VRB04KT P6SM VCSH SCT020 BKN040=

USA.gov is the U.S. government's official web portal to all federal, state and local government web resources and services.